Time;durP1;ratioP1;P1;durP2;ratioP2;P2;SDS_P1;SDS_P2;PMS_P1;PMS_P2;Temp;Humidity;BMP_temperature;BMP_pressure;BME280_temperature;BME280_humidity;BME280_pressure;Samples;Min_cycle;Max_cycle;Signal;HPM_P1;HPM_P2
2022/10/03 00:00:19;;;;;;;;;;;;;;;17.17;71.05;101118.50;5053382;28;1901;-70
2022/10/03 00:03:02;;;;;;;;;;;;;;;17.17;70.38;101124.03;5053444;28;1070;-71
2022/10/03 00:05:50;;;;;;;;;;;;;;;17.18;71.01;101122.91;5053331;28;817;-71
2022/10/03 00:08:28;;;;;;;;;;;;;;;17.17;70.00;101121.25;5053434;28;1366;-71
2022/10/03 00:11:16;;;;;;;;;;;;;;;17.17;70.69;101127.63;5053381;28;797;-72
2022/10/03 00:13:55;;;;;;;;;;;;;;;17.18;71.05;101125.66;5061512;28;1333;-72
2022/10/03 00:16:40;;;;;;;;;;;;;;;17.19;70.99;101127.28;5052949;28;1197;-71
2022/10/03 00:19:05;;;;;;;;;;;;;;;17.18;70.16;101136.75;5055952;28;1115;-72
2022/10/03 00:21:33;;;;;;;;;;;;;;;17.18;70.90;101139.50;5053142;28;1894;-72
2022/10/03 00:23:59;;;;;;;;;;;;;;;17.17;70.09;101146.97;5053152;28;873;-72
2022/10/03 00:26:33;;;;;;;;;;;;;;;17.17;70.68;101146.16;5052793;28;1274;-72
2022/10/03 00:29:01;;;;;;;;;;;;;;;17.17;70.35;101143.41;5053255;28;842;-72
2022/10/03 00:31:37;;;;;;;;;;;;;;;17.17;71.19;101146.97;5053175;28;896;-71
2022/10/03 00:34:18;;;;;;;;;;;;;;;17.17;70.01;101148.94;5053100;28;824;-71
2022/10/03 00:36:59;;;;;;;;;;;;;;;17.17;70.35;101152.53;5052721;28;1185;-72
2022/10/03 00:39:37;;;;;;;;;;;;;;;17.17;71.09;101152.53;5053055;28;901;-72
2022/10/03 00:42:05;;;;;;;;;;;;;;;17.17;70.57;101148.94;5052985;28;1894;-72
2022/10/03 00:44:38;;;;;;;;;;;;;;;17.17;70.80;101155.28;5052955;28;820;-72
2022/10/03 00:47:22;;;;;;;;;;;;;;;17.18;70.80;101147.81;5052685;28;1570;-72
2022/10/03 00:49:47;;;;;;;;;;;;;;;17.16;70.82;101156.41;5052967;28;956;-72
2022/10/03 00:52:31;;;;;;;;;;;;;;;17.17;70.92;101154.47;5052929;28;983;-72
2022/10/03 00:55:14;;;;;;;;;;;;;;;17.16;70.94;101155.59;5052933;28;884;-72
2022/10/03 00:57:54;;;;;;;;;;;;;;;17.15;71.16;101154.75;5052531;28;1208;-72
2022/10/03 01:00:23;;;;;;;;;;;;;;;17.17;70.93;101151.69;5054217;28;1902;-71
2022/10/03 01:03:14;;;;;;;;;;;;;;;17.16;69.90;101161.94;5056865;28;887;-71
2022/10/03 01:05:59;;;;;;;;;;;;;;;17.16;70.56;101150.88;5055498;28;1301;-72
2022/10/03 01:08:39;;;;;;;;;;;;;;;17.17;70.04;101160.00;5055334;28;1299;-72
2022/10/03 01:11:31;;;;;;;;;;;;;;;17.17;70.04;101160.00;5056728;28;979;-72
2022/10/03 01:13:56;;;;;;;;;;;;;;;17.16;70.41;101166.66;5056599;28;1018;-72
2022/10/03 01:16:35;;;;;;;;;;;;;;;17.16;70.94;101161.13;5056184;28;1203;-70
2022/10/03 01:19:19;;;;;;;;;;;;;;;17.16;70.13;101169.41;5056610;28;820;-72
2022/10/03 01:21:54;;;;;;;;;;;;;;;17.16;70.87;101166.66;5056344;28;1893;-72
2022/10/03 01:24:38;;;;;;;;;;;;;;;17.16;70.16;101169.41;5056959;28;991;-72
2022/10/03 01:27:05;;;;;;;;;;;;;;;17.17;70.10;101176.59;5056110;28;1233;-72
2022/10/03 01:32:59;;;;;;;;;;;;;;;17.17;70.85;101173.81;5056322;28;659;-72
2022/10/03 01:35:57;;;;;;;;;;;;;;;17.16;70.93;101180.47;5056180;28;980;-72
2022/10/03 01:38:44;;;;;;;;;;;;;;;17.16;70.53;101188.78;5065781;28;1343;-71
2022/10/03 01:41:09;;;;;;;;;;;;;;;17.16;70.25;101186.00;5056036;28;1952;-72
2022/10/03 01:44:01;;;;;;;;;;;;;;;17.15;70.25;101193.50;5056294;28;809;-72
2022/10/03 01:46:32;;;;;;;;;;;;;;;17.15;71.00;101189.91;5056268;28;1293;-71
2022/10/03 01:49:00;;;;;;;;;;;;;;;17.17;70.33;101193.19;5056020;28;956;-72
2022/10/03 01:51:28;;;;;;;;;;;;;;;17.16;70.97;101197.09;5055873;28;940;-71
2022/10/03 01:54:14;;;;;;;;;;;;;;;17.16;70.16;101199.84;5055933;28;976;-72
2022/10/03 01:56:56;;;;;;;;;;;;;;;17.16;70.37;101200.66;5055377;28;1352;-72
2022/10/03 01:59:21;;;;;;;;;;;;;;;17.16;70.04;101205.38;5055774;28;786;-72
2022/10/03 02:01:55;;;;;;;;;;;;;;;17.17;70.53;101207.03;5055655;28;1894;-71
2022/10/03 02:04:32;;;;;;;;;;;;;;;17.17;70.40;101212.56;5055656;28;1008;-71
2022/10/03 02:07:12;;;;;;;;;;;;;;;17.16;70.29;101213.69;5055325;28;1225;-72
2022/10/03 02:09:49;;;;;;;;;;;;;;;17.17;70.53;101212.56;5055590;28;1046;-72
2022/10/03 02:12:49;;;;;;;;;;;;;;;17.16;70.25;101220.03;5054642;28;967;-72
2022/10/03 02:15:24;;;;;;;;;;;;;;;17.16;70.92;101213.69;5073086;28;1403;-72
2022/10/03 02:18:11;;;;;;;;;;;;;;;17.15;70.36;101217.56;5057651;28;1209;-72
2022/10/03 02:20:44;;;;;;;;;;;;;;;17.16;70.77;101220.03;5055235;28;1894;-72
2022/10/03 02:23:23;;;;;;;;;;;;;;;17.16;70.83;101225.56;5039010;28;1953;-72
2022/10/03 02:26:01;;;;;;;;;;;;;;;17.16;70.52;101216.44;5037301;28;907;-72
2022/10/03 02:28:35;;;;;;;;;;;;;;;17.16;70.86;101227.50;5055116;28;1201;-72
2022/10/03 02:31:02;;;;;;;;;;;;;;;17.16;70.24;101227.50;5055263;28;853;-72
2022/10/03 02:33:38;;;;;;;;;;;;;;;17.15;70.83;101226.69;5055149;28;814;-72
2022/10/03 02:36:27;;;;;;;;;;;;;;;17.15;70.82;101229.47;5054018;28;979;-72
2022/10/03 02:39:11;;;;;;;;;;;;;;;17.16;69.91;101239.41;5063102;28;1048;-72
2022/10/03 02:41:48;;;;;;;;;;;;;;;17.16;70.94;101238.56;5054915;28;1890;-72
2022/10/03 02:44:31;;;;;;;;;;;;;;;17.16;70.01;101236.63;5055032;28;869;-72
2022/10/03 02:47:11;;;;;;;;;;;;;;;17.16;71.01;101235.81;5054569;28;1205;-72
2022/10/03 02:49:40;;;;;;;;;;;;;;;17.16;69.85;101244.94;5054841;28;1002;-72
2022/10/03 02:52:10;;;;;;;;;;;;;;;17.17;70.11;101240.22;5054906;28;805;-72
2022/10/03 02:54:51;;;;;;;;;;;;;;;17.17;69.77;101240.22;5054737;28;964;-71
2022/10/03 02:57:22;;;;;;;;;;;;;;;17.17;70.19;101251.28;5054790;28;1304;-70
2022/10/03 03:00:16;;;;;;;;;;;;;;;17.17;69.94;101245.75;5054729;28;1023;-70
2022/10/03 03:03:00;;;;;;;;;;;;;;;17.17;70.92;101251.28;5058271;28;1901;-69
2022/10/03 03:05:48;;;;;;;;;;;;;;;17.17;70.73;101251.28;5054610;28;825;-70
2022/10/03 03:08:25;;;;;;;;;;;;;;;17.17;70.91;101248.53;5036820;28;1261;-70
2022/10/03 03:11:04;;;;;;;;;;;;;;;17.16;70.40;101244.94;5054399;28;801;-70
2022/10/03 03:13:30;;;;;;;;;;;;;;;17.17;71.02;101245.75;5054482;28;813;-70
2022/10/03 03:16:01;;;;;;;;;;;;;;;17.18;69.82;101247.41;5054127;28;980;-70
2022/10/03 03:18:47;;;;;;;;;;;;;;;17.15;70.92;101248.81;5054129;28;1315;-71
2022/10/03 03:21:12;;;;;;;;;;;;;;;17.17;71.02;101241.03;5055404;28;1902;-70
2022/10/03 03:23:37;;;;;;;;;;;;;;;17.19;70.29;101251.78;5054160;28;1023;-70
2022/10/03 03:26:09;;;;;;;;;;;;;;;17.17;70.93;101252.13;5053911;28;813;-70
2022/10/03 03:28:47;;;;;;;;;;;;;;;17.18;70.18;101259.25;5054069;28;1023;-69
2022/10/03 03:31:12;;;;;;;;;;;;;;;17.19;69.97;101254.53;5052886;28;868;-70
2022/10/03 03:33:43;;;;;;;;;;;;;;;17.18;70.58;101264.78;5054009;28;801;-70
2022/10/03 03:36:15;;;;;;;;;;;;;;;17.17;70.02;101263.19;5053656;28;1213;-70
2022/10/03 03:38:53;;;;;;;;;;;;;;;17.18;69.96;101258.47;5054319;28;829;-70
2022/10/03 03:41:37;;;;;;;;;;;;;;;17.17;69.98;101259.59;5053709;28;1952;-70
2022/10/03 03:44:05;;;;;;;;;;;;;;;17.18;70.30;101258.47;5053824;28;880;-70
2022/10/03 03:46:39;;;;;;;;;;;;;;;17.18;70.10;101269.53;5053445;28;1287;-70
2022/10/03 03:49:14;;;;;;;;;;;;;;;17.19;70.63;101271.16;5053818;28;885;-70
2022/10/03 03:51:41;;;;;;;;;;;;;;;17.17;70.08;101263.19;5053668;28;893;-71
2022/10/03 03:54:25;;;;;;;;;;;;;;;17.18;70.94;101272.31;5053669;28;845;-70
2022/10/03 03:57:00;;;;;;;;;;;;;;;17.19;70.40;101268.38;5053173;28;1201;-70
2022/10/03 03:59:35;;;;;;;;;;;;;;;17.20;69.75;101267.25;5053618;28;867;-70
2022/10/03 04:02:09;;;;;;;;;;;;;;;17.21;69.86;101268.91;5053422;28;1902;-70
2022/10/03 04:04:41;;;;;;;;;;;;;;;17.20;70.95;101270.03;5053493;28;984;-70
2022/10/03 04:07:18;;;;;;;;;;;;;;;17.22;69.61;101274.13;5053145;28;1304;-70
2022/10/03 04:09:43;;;;;;;;;;;;;;;17.22;70.69;101279.66;5053307;28;1012;-70
2022/10/03 04:12:09;;;;;;;;;;;;;;;17.22;70.61;101279.66;5052081;28;1214;-71
2022/10/03 04:14:57;;;;;;;;;;;;;;;17.22;69.76;101282.44;5053231;28;774;-71
2022/10/03 04:20:31;;;;;;;;;;;;;;;17.22;70.18;101273.31;5053330;28;682;-71
2022/10/03 04:23:10;;;;;;;;;;;;;;;17.22;69.83;101276.06;5053242;28;813;-71
2022/10/03 04:25:38;;;;;;;;;;;;;;;17.21;70.90;101266.13;5053282;28;976;-70
2022/10/03 04:28:12;;;;;;;;;;;;;;;17.22;70.37;101273.31;5052896;28;1271;-70
2022/10/03 04:30:57;;;;;;;;;;;;;;;17.21;70.86;101277.19;5051933;28;896;-70
2022/10/03 04:33:25;;;;;;;;;;;;;;;17.21;70.45;101275.25;5053105;28;1043;-70
2022/10/03 04:35:50;;;;;;;;;;;;;;;17.22;70.61;101281.63;5052534;28;825;-71
2022/10/03 04:38:34;;;;;;;;;;;;;;;17.22;69.89;101276.06;5053092;28;1170;-70
2022/10/03 04:41:07;;;;;;;;;;;;;;;17.22;70.52;101279.66;5053086;28;1898;-70
2022/10/03 04:43:35;;;;;;;;;;;;;;;17.22;71.00;101278.84;5053125;28;864;-71
2022/10/03 04:46:15;;;;;;;;;;;;;;;17.21;69.80;101278.03;5052691;28;805;-71
2022/10/03 04:49:01;;;;;;;;;;;;;;;17.22;70.72;101276.06;5051722;28;1340;-71
2022/10/03 04:51:49;;;;;;;;;;;;;;;17.21;70.12;101278.03;5055689;28;1112;-70
2022/10/03 04:54:16;;;;;;;;;;;;;;;17.21;70.44;101280.78;5052816;28;797;-70
2022/10/03 04:56:48;;;;;;;;;;;;;;;17.22;69.97;101295.44;5052501;28;1234;-70
2022/10/03 04:59:28;;;;;;;;;;;;;;;17.21;70.67;101279.97;5052927;28;829;-71
2022/10/03 05:02:02;;;;;;;;;;;;;;;17.20;70.00;101292.97;5052844;28;1906;-70
2022/10/03 05:04:33;;;;;;;;;;;;;;;17.20;70.65;101290.22;5051592;28;1234;-71
2022/10/03 05:07:17;;;;;;;;;;;;;;;17.19;70.71;101291.34;5052417;28;1205;-70
2022/10/03 05:10:05;;;;;;;;;;;;;;;17.20;70.71;101295.75;5052727;28;1008;-71
2022/10/03 05:12:44;;;;;;;;;;;;;;;17.19;70.50;101293.28;5053663;28;1247;-70
2022/10/03 05:15:09;;;;;;;;;;;;;;;17.19;70.91;101279.44;5052653;28;1024;-71
2022/10/03 05:17:43;;;;;;;;;;;;;;;17.19;69.87;101288.56;5052434;28;1151;-70
2022/10/03 05:20:28;;;;;;;;;;;;;;;17.18;70.08;101288.91;5052750;28;813;-70
2022/10/03 05:22:59;;;;;;;;;;;;;;;17.18;69.99;101295.22;5051399;28;1893;-70
2022/10/03 05:25:40;;;;;;;;;;;;;;;17.17;70.11;101301.09;5052583;28;1023;-70
2022/10/03 05:28:11;;;;;;;;;;;;;;;17.17;70.31;101301.91;5052332;28;1170;-70
2022/10/03 05:30:43;;;;;;;;;;;;;;;17.17;70.05;101299.16;5052610;28;881;-70
2022/10/03 05:33:32;;;;;;;;;;;;;;;17.17;70.75;101303.84;5052683;28;774;-70
2022/10/03 05:36:07;;;;;;;;;;;;;;;17.16;70.79;101310.50;5054241;28;1099;-70
2022/10/03 05:38:51;;;;;;;;;;;;;;;17.16;70.01;101311.34;5052512;28;975;-70
2022/10/03 05:41:21;;;;;;;;;;;;;;;17.17;69.83;101312.16;5052385;28;1886;-70
2022/10/03 05:43:49;;;;;;;;;;;;;;;17.15;70.57;101320.75;5052467;28;1193;-70
2022/10/03 05:46:37;;;;;;;;;;;;;;;17.16;70.08;101324.34;5052069;28;1219;-70
2022/10/03 05:49:15;;;;;;;;;;;;;;;17.14;70.00;101321.88;5056007;28;1042;-70
2022/10/03 05:52:00;;;;;;;;;;;;;;;17.14;69.84;101326.59;5055924;28;829;-70
2022/10/03 05:54:31;;;;;;;;;;;;;;;17.14;70.79;101334.88;5055927;28;853;-70
2022/10/03 05:57:22;;;;;;;;;;;;;;;17.14;69.93;101334.88;5055384;28;1298;-71
2022/10/03 05:59:47;;;;;;;;;;;;;;;17.13;70.48;101331.28;5055869;28;813;-70
2022/10/03 06:02:38;;;;;;;;;;;;;;;17.14;70.10;101334.88;5055674;28;1894;-71
2022/10/03 06:05:24;;;;;;;;;;;;;;;17.13;70.77;101339.59;5055651;28;873;-70
2022/10/03 06:07:52;;;;;;;;;;;;;;;17.13;69.82;101336.81;5055272;28;1212;-69
2022/10/03 06:10:26;;;;;;;;;;;;;;;17.13;70.47;101338.78;5055643;28;873;-71
2022/10/03 06:13:10;;;;;;;;;;;;;;;17.13;70.64;101350.66;5055523;28;864;-70
2022/10/03 06:15:36;;;;;;;;;;;;;;;17.13;70.37;101345.13;5055445;28;854;-71
2022/10/03 06:18:14;;;;;;;;;;;;;;;17.13;70.14;101347.06;5055160;28;1169;-70
2022/10/03 06:20:58;;;;;;;;;;;;;;;17.13;69.85;101349.84;5055350;28;1894;-70
2022/10/03 06:23:38;;;;;;;;;;;;;;;17.12;69.96;101351.78;5055301;28;952;-71
2022/10/03 06:26:03;;;;;;;;;;;;;;;17.12;69.74;101356.50;5055161;28;793;-70
2022/10/03 06:28:28;;;;;;;;;;;;;;;17.11;70.37;101350.13;5055295;28;1288;-70
2022/10/03 06:30:56;;;;;;;;;;;;;;;17.12;70.20;101360.06;5055376;28;1084;-71
2022/10/03 06:33:33;;;;;;;;;;;;;;;17.12;69.91;101356.50;5055221;28;899;-70
2022/10/03 06:36:17;;;;;;;;;;;;;;;17.12;70.38;101353.72;5054837;28;907;-70
2022/10/03 06:39:01;;;;;;;;;;;;;;;17.12;70.38;101353.72;5055030;28;980;-70
2022/10/03 06:41:32;;;;;;;;;;;;;;;17.12;70.05;101359.25;5054958;28;1949;-70
2022/10/03 06:44:02;;;;;;;;;;;;;;;17.12;69.76;101359.25;5054957;28;861;-71
2022/10/03 06:46:46;;;;;;;;;;;;;;;17.12;70.01;101353.72;5054742;28;1208;-70
2022/10/03 06:49:31;;;;;;;;;;;;;;;17.11;70.89;101360.38;5054966;28;846;-71
2022/10/03 06:51:59;;;;;;;;;;;;;;;17.11;70.34;101355.66;5054765;28;876;-70
2022/10/03 06:54:39;;;;;;;;;;;;;;;17.11;70.23;101360.38;5054740;28;1018;-71
2022/10/03 06:57:13;;;;;;;;;;;;;;;17.11;70.49;101366.72;5054288;28;1193;-71
2022/10/03 06:59:50;;;;;;;;;;;;;;;17.11;70.77;101368.69;5054440;28;923;-70
2022/10/03 07:02:15;;;;;;;;;;;;;;;17.10;70.09;101354.03;5054688;28;1956;-70
2022/10/03 07:04:52;;;;;;;;;;;;;;;17.10;70.41;101362.31;5054561;28;1023;-70
2022/10/03 07:07:36;;;;;;;;;;;;;;;17.11;70.04;101369.50;5052949;28;1423;-70
2022/10/03 07:10:01;;;;;;;;;;;;;;;17.11;70.97;101374.22;5053133;28;1539;-70
2022/10/03 07:12:32;;;;;;;;;;;;;;;17.11;69.93;101368.69;5054459;28;854;-71
2022/10/03 07:15:15;;;;;;;;;;;;;;;17.11;69.92;101369.50;5054382;28;852;-71
2022/10/03 07:17:49;;;;;;;;;;;;;;;17.11;70.85;101363.13;5054037;28;1264;-70
2022/10/03 07:20:31;;;;;;;;;;;;;;;17.10;70.45;101367.84;5054149;28;968;-70
2022/10/03 07:22:59;;;;;;;;;;;;;;;17.11;70.34;101377.78;5054184;28;1894;-71
2022/10/03 07:25:33;;;;;;;;;;;;;;;17.12;70.84;101378.63;5054144;28;806;-70
2022/10/03 07:27:58;;;;;;;;;;;;;;;17.11;70.12;101380.56;5053898;28;1327;-71
2022/10/03 07:30:26;;;;;;;;;;;;;;;17.12;70.26;101378.63;5053954;28;1015;-70
2022/10/03 07:33:10;;;;;;;;;;;;;;;17.11;69.91;101383.34;5054070;28;798;-71
2022/10/03 07:38:58;;;;;;;;;;;;;;;17.13;70.73;101394.91;5053933;28;1237;-70
2022/10/03 07:41:23;;;;;;;;;;;;;;;17.16;70.83;101399.84;5071392;28;1894;-71
2022/10/03 07:44:16;;;;;;;;;;;;;;;17.17;70.97;101400.69;5057656;28;1148;-70
2022/10/03 07:47:00;;;;;;;;;;;;;;;17.17;70.76;101407.03;5053438;28;1278;-70
2022/10/03 07:49:28;;;;;;;;;;;;;;;17.17;70.08;101406.22;5053984;28;760;-70
2022/10/03 07:52:11;;;;;;;;;;;;;;;17.18;70.76;101416.94;5053703;28;817;-70
2022/10/03 07:54:55;;;;;;;;;;;;;;;17.18;69.98;101405.88;5053756;28;876;-70
2022/10/03 07:57:26;;;;;;;;;;;;;;;17.18;70.68;101408.66;5053129;28;1199;-71
2022/10/03 08:00:11;;;;;;;;;;;;;;;17.18;70.16;101413.41;5053594;28;888;-71
2022/10/03 08:02:56;;;;;;;;;;;;;;;17.18;69.75;101405.88;5053425;28;1902;-71
2022/10/03 08:05:24;;;;;;;;;;;;;;;17.19;70.42;101420.53;5053325;28;1445;-70
2022/10/03 08:08:02;;;;;;;;;;;;;;;17.18;70.62;101416.94;5053046;28;1299;-70
2022/10/03 08:10:36;;;;;;;;;;;;;;;17.20;69.44;101423.00;5052989;28;872;-70
2022/10/03 08:13:20;;;;;;;;;;;;;;;17.21;69.80;101424.66;5053380;28;857;-70
2022/10/03 08:15:59;;;;;;;;;;;;;;;17.21;70.81;101432.13;5053153;28;769;-70
2022/10/03 08:18:30;;;;;;;;;;;;;;;17.21;69.86;101432.97;5053153;28;1145;-71
2022/10/03 08:20:57;;;;;;;;;;;;;;;17.21;69.61;101434.91;5053187;28;1957;-70
2022/10/03 08:23:37;;;;;;;;;;;;;;;17.22;69.84;101442.09;5053179;28;999;-70
2022/10/03 08:26:10;;;;;;;;;;;;;;;17.21;70.50;101441.25;5053454;28;884;-70
2022/10/03 08:31:43;;;;;;;;;;;;;;;17.21;70.60;101446.78;5052998;28;674;-71
2022/10/03 08:34:22;;;;;;;;;;;;;;;17.22;69.83;101448.44;5052653;28;995;-70
2022/10/03 08:36:50;;;;;;;;;;;;;;;17.22;69.67;101442.91;5052879;28;1212;-70
2022/10/03 08:39:25;;;;;;;;;;;;;;;17.23;69.53;101443.72;5051835;28;1333;-70
2022/10/03 08:42:13;;;;;;;;;;;;;;;17.23;70.40;101447.31;5052984;28;1897;-70
2022/10/03 08:44:44;;;;;;;;;;;;;;;17.22;70.68;101445.69;5053099;28;913;-70
2022/10/03 08:47:33;;;;;;;;;;;;;;;17.23;69.78;101450.09;5052682;28;1264;-70
2022/10/03 08:50:17;;;;;;;;;;;;;;;17.23;69.51;101450.09;5052934;28;1046;-70
2022/10/03 08:52:43;;;;;;;;;;;;;;;17.25;69.99;101463.63;5052953;28;1023;-70
2022/10/03 08:55:14;;;;;;;;;;;;;;;17.25;70.31;101464.44;5053056;28;844;-70
2022/10/03 08:57:39;;;;;;;;;;;;;;;17.24;70.42;101456.44;5070522;22;2220;-62
2022/10/03 09:00:14;;;;;;;;;;;;;;;17.25;70.63;101455.31;5032979;28;963;-63
2022/10/03 09:02:49;;;;;;;;;;;;;;;17.24;69.65;101460.03;5045011;28;1914;-62
2022/10/03 09:05:24;;;;;;;;;;;;;;;17.25;70.27;101461.69;5052795;28;809;-63
2022/10/03 09:07:58;;;;;;;;;;;;;;;17.25;70.24;101458.91;5052495;28;1277;-63
2022/10/03 09:10:46;;;;;;;;;;;;;;;17.26;69.70;101451.44;5052778;28;987;-62
2022/10/03 09:13:25;;;;;;;;;;;;;;;16.94;70.04;101450.25;5052787;28;843;-62
2022/10/03 09:16:19;;;;;;;;;;;;;;;16.33;71.91;101452.22;5052638;28;1050;-63
2022/10/03 09:18:50;;;;;;;;;;;;;;;15.88;73.93;101451.66;5052780;28;1390;-63
2022/10/03 09:21:33;;;;;;;;;;;;;;;15.68;75.42;101451.84;5053566;28;1890;-62
2022/10/03 09:24:17;;;;;;;;;;;;;;;15.84;75.96;101458.84;5056479;28;888;-63
2022/10/03 09:27:01;;;;;;;;;;;;;;;16.15;75.11;101448.31;5056126;28;1249;-63
2022/10/03 09:29:29;;;;;;;;;;;;;;;16.39;74.48;101460.16;5056442;28;1066;-63
2022/10/03 09:32:13;;;;;;;;;;;;;;;16.53;73.89;101455.53;5056732;28;1046;-62
2022/10/03 09:34:48;;;;;;;;;;;;;;;16.67;73.49;101461.19;5056505;28;829;-62
2022/10/03 09:37:33;;;;;;;;;;;;;;;16.75;73.08;101451.41;5055995;28;1268;-63
2022/10/03 09:40:07;;;;;;;;;;;;;;;16.82;72.30;101449.09;5056298;28;968;-63
2022/10/03 09:42:51;;;;;;;;;;;;;;;16.86;72.90;101450.94;5056059;28;1889;-63
2022/10/03 09:45:16;;;;;;;;;;;;;;;16.91;71.83;101461.94;5056076;28;987;-62
2022/10/03 09:48:00;;;;;;;;;;;;;;;16.92;71.75;101458.06;5055712;28;1201;-62
2022/10/03 09:50:45;;;;;;;;;;;;;;;16.95;71.34;101460.22;5056092;28;849;-61
2022/10/03 09:53:29;;;;;;;;;;;;;;;16.95;71.41;101460.22;5055812;28;836;-63
2022/10/03 09:56:18;;;;;;;;;;;;;;;16.96;71.22;101459.09;5055615;28;864;-62
2022/10/03 09:58:49;;;;;;;;;;;;;;;16.97;71.21;101460.75;5055785;28;1205;-63
2022/10/03 10:01:33;;;;;;;;;;;;;;;16.98;71.89;101461.56;5055726;28;1898;-61
2022/10/03 10:04:17;;;;;;;;;;;;;;;16.99;71.43;101466.81;5055776;28;935;-60
2022/10/03 10:06:54;;;;;;;;;;;;;;;16.99;71.14;101461.28;5055432;28;1241;-59
2022/10/03 10:09:38;;;;;;;;;;;;;;;17.00;71.01;101462.91;5055709;28;884;-60
2022/10/03 10:12:15;;;;;;;;;;;;;;;17.00;71.01;101460.16;5055500;28;799;-60
2022/10/03 10:14:40;;;;;;;;;;;;;;;16.99;70.89;101450.22;5055619;28;1018;-59
2022/10/03 10:17:18;;;;;;;;;;;;;;;17.00;71.39;101457.38;5055144;28;1212;-60
2022/10/03 10:19:52;;;;;;;;;;;;;;;17.01;71.69;101452.69;5055539;28;876;-59
2022/10/03 10:22:17;;;;;;;;;;;;;;;17.00;71.51;101451.03;5055293;28;1898;-60
2022/10/03 10:24:45;;;;;;;;;;;;;;;17.01;70.78;101456.22;5055402;28;868;-61
2022/10/03 10:27:16;;;;;;;;;;;;;;;17.01;70.60;101442.41;5054947;28;1220;-60
2022/10/03 10:29:44;;;;;;;;;;;;;;;17.01;71.63;101447.16;5055298;28;972;-60
2022/10/03 10:32:09;;;;;;;;;;;;;;;17.01;71.01;101445.16;5054941;28;766;-60
2022/10/03 10:34:40;;;;;;;;;;;;;;;17.02;70.69;101444.06;5054813;28;960;-60
2022/10/03 10:37:31;;;;;;;;;;;;;;;17.01;71.36;101439.63;5054786;28;1284;-61
2022/10/03 10:39:56;;;;;;;;;;;;;;;17.02;70.49;101444.06;5055227;28;833;-61
2022/10/03 10:42:24;;;;;;;;;;;;;;;17.02;70.99;101443.22;5054961;28;2024;-61
2022/10/03 10:44:52;;;;;;;;;;;;;;;17.03;70.43;101440.16;5054964;28;1027;-61
2022/10/03 10:47:20;;;;;;;;;;;;;;;17.02;70.73;101444.06;5054558;28;1200;-61
2022/10/03 10:49:51;;;;;;;;;;;;;;;17.03;70.75;101440.16;5054864;28;798;-61
2022/10/03 10:52:35;;;;;;;;;;;;;;;17.02;70.63;101441.28;5054912;28;908;-60
2022/10/03 10:55:21;;;;;;;;;;;;;;;17.02;71.27;101438.53;5054861;28;828;-60
2022/10/03 10:57:50;;;;;;;;;;;;;;;17.01;71.32;101442.41;5054267;28;1296;-59
2022/10/03 11:00:30;;;;;;;;;;;;;;;17.01;71.26;101441.59;5054989;28;862;-60
2022/10/03 11:03:27;;;;;;;;;;;;;;;17.00;71.57;101438.03;5054612;28;1961;-60
2022/10/03 11:06:11;;;;;;;;;;;;;;;17.01;71.17;101436.88;5054157;28;1692;-60
2022/10/03 11:08:51;;;;;;;;;;;;;;;17.01;71.46;101436.88;5054517;28;1175;-61
2022/10/03 11:11:16;;;;;;;;;;;;;;;17.02;71.09;101432.16;5054515;28;893;-62
2022/10/03 11:13:51;;;;;;;;;;;;;;;17.02;70.48;101430.22;5054565;28;809;-62
2022/10/03 11:16:34;;;;;;;;;;;;;;;17.03;70.57;101423.56;5054005;28;862;-62
2022/10/03 11:19:18;;;;;;;;;;;;;;;17.02;71.07;101424.69;5054353;28;1030;-62
2022/10/03 11:22:03;;;;;;;;;;;;;;;17.02;70.81;101427.47;5054181;28;1955;-62
2022/10/03 11:24:46;;;;;;;;;;;;;;;17.02;71.25;101433.00;5054212;28;922;-62
2022/10/03 11:27:20;;;;;;;;;;;;;;;17.02;70.37;101429.41;5053831;28;1212;-62
2022/10/03 11:29:48;;;;;;;;;;;;;;;17.01;71.33;101420.28;5054497;28;864;-63
2022/10/03 11:32:32;;;;;;;;;;;;;;;17.01;70.38;101430.53;5054152;28;860;-63
2022/10/03 11:35:12;;;;;;;;;;;;;;;17.01;71.20;101417.50;5054059;28;983;-62
2022/10/03 11:37:40;;;;;;;;;;;;;;;17.01;70.45;101420.28;5053655;28;1286;-63
2022/10/03 11:40:18;;;;;;;;;;;;;;;17.00;71.21;101418.66;5053950;28;809;-62
2022/10/03 11:43:15;;;;;;;;;;;;;;;17.00;70.00;101421.44;5053969;28;1963;-62
2022/10/03 11:45:48;;;;;;;;;;;;;;;17.00;71.09;101417.84;5029834;28;1129;-62
2022/10/03 11:48:32;;;;;;;;;;;;;;;17.00;70.52;101415.91;5053726;28;1228;-62
2022/10/03 11:51:18;;;;;;;;;;;;;;;17.01;70.41;101416.72;5053770;28;920;-62
2022/10/03 11:53:52;;;;;;;;;;;;;;;17.00;70.72;101412.31;5053662;28;963;-62
2022/10/03 11:56:31;;;;;;;;;;;;;;;17.01;71.16;101413.94;5053722;28;1039;-62
2022/10/03 11:59:05;;;;;;;;;;;;;;;17.00;70.44;101410.38;5053834;28;912;-62
2022/10/03 12:01:36;;;;;;;;;;;;;;;17.01;70.54;101409.22;5053527;28;1898;-62
2022/10/03 12:04:13;;;;;;;;;;;;;;;16.99;70.86;101417.00;5053527;28;983;-61
2022/10/03 12:09:57;;;;;;;;;;;;;;;17.00;70.22;101413.13;5053497;28;605;-62
2022/10/03 12:12:32;;;;;;;;;;;;;;;17.00;71.34;101420.59;5053403;28;801;-61
2022/10/03 12:15:02;;;;;;;;;;;;;;;17.00;70.35;101410.38;5053543;28;888;-60
2022/10/03 12:17:31;;;;;;;;;;;;;;;17.00;70.48;101401.25;5053154;28;1248;-61
2022/10/03 12:20:19;;;;;;;;;;;;;;;16.98;71.13;101404.31;5053419;28;1000;-60
2022/10/03 12:23:04;;;;;;;;;;;;;;;16.98;71.48;101403.47;5053170;28;1939;-60
2022/10/03 12:25:30;;;;;;;;;;;;;;;16.97;71.29;101404.59;5052722;28;1279;-62
2022/10/03 12:28:06;;;;;;;;;;;;;;;16.99;71.13;101405.94;5053051;28;1217;-62
2022/10/03 12:30:38;;;;;;;;;;;;;;;16.99;71.17;101403.19;5053154;28;853;-63
2022/10/03 12:33:04;;;;;;;;;;;;;;;16.99;71.45;101399.59;5053097;28;885;-62
2022/10/03 12:35:29;;;;;;;;;;;;;;;17.00;70.46;101398.47;5053071;28;841;-61
2022/10/03 12:37:54;;;;;;;;;;;;;;;17.00;70.47;101407.59;5052965;28;1185;-62
2022/10/03 12:40:19;;;;;;;;;;;;;;;17.02;71.37;101407.28;5053082;28;1004;-63
2022/10/03 12:43:00;;;;;;;;;;;;;;;17.03;71.32;101404.22;5053083;28;1890;-62
2022/10/03 12:45:39;;;;;;;;;;;;;;;17.06;70.58;101407.50;5053173;28;818;-63
2022/10/03 12:48:07;;;;;;;;;;;;;;;17.08;71.08;101408.84;5052616;28;1211;-62
2022/10/03 12:50:53;;;;;;;;;;;;;;;17.11;70.66;101402.69;5052978;28;967;-63
2022/10/03 12:53:22;;;;;;;;;;;;;;;17.13;71.08;101407.94;5053019;28;812;-63
2022/10/03 12:56:00;;;;;;;;;;;;;;;17.13;70.36;101414.28;5053507;28;813;-61
2022/10/03 12:58:40;;;;;;;;;;;;;;;17.13;71.18;101400.44;5056756;28;1251;-63
2022/10/03 13:01:24;;;;;;;;;;;;;;;17.13;70.86;101397.69;5056897;28;1961;-63
2022/10/03 13:03:54;;;;;;;;;;;;;;;17.12;69.82;101403.50;5056942;28;851;-60
2022/10/03 13:06:28;;;;;;;;;;;;;;;17.13;70.12;101405.16;5056621;28;1035;-60
2022/10/03 13:09:06;;;;;;;;;;;;;;;17.11;70.32;101408.22;5056759;28;1330;-61
2022/10/03 13:11:39;;;;;;;;;;;;;;;17.11;70.17;101397.16;5056954;28;857;-61
2022/10/03 13:14:22;;;;;;;;;;;;;;;17.11;70.66;101401.88;5056811;28;849;-61
2022/10/03 13:17:06;;;;;;;;;;;;;;;17.11;70.55;101396.34;5056437;28;1197;-60
2022/10/03 13:19:40;;;;;;;;;;;;;;;17.11;70.23;101399.09;5056581;28;781;-62
2022/10/03 13:22:27;;;;;;;;;;;;;;;17.09;71.13;101401.38;5056482;28;1894;-62
2022/10/03 13:24:58;;;;;;;;;;;;;;;17.08;70.52;101389.50;5056590;28;1179;-62
2022/10/03 13:27:42;;;;;;;;;;;;;;;17.10;70.13;101391.97;5056030;28;1189;-62
2022/10/03 13:30:17;;;;;;;;;;;;;;;17.09;70.00;101379.25;5056425;28;976;-62
2022/10/03 13:32:48;;;;;;;;;;;;;;;17.09;70.90;101382.84;5056513;28;890;-62
2022/10/03 13:38:10;;;;;;;;;;;;;;;17.07;71.37;101381.47;5055944;28;1284;-62
2022/10/03 13:40:38;;;;;;;;;;;;;;;17.07;70.05;101365.72;5056226;28;991;-62
2022/10/03 13:43:08;;;;;;;;;;;;;;;17.08;70.49;101377.59;5056238;28;1902;-62
2022/10/03 13:45:38;;;;;;;;;;;;;;;17.08;70.50;101374.84;5056253;28;941;-62
2022/10/03 13:48:06;;;;;;;;;;;;;;;17.07;70.46;101370.41;5055828;28;1200;-62
2022/10/03 13:50:41;;;;;;;;;;;;;;;17.07;70.02;101367.66;5055970;28;944;-63
2022/10/03 13:53:32;;;;;;;;;;;;;;;17.07;70.89;101371.25;5055969;28;932;-62
2022/10/03 13:56:03;;;;;;;;;;;;;;;17.06;70.30;101364.06;5039598;28;1056;-62